createdAt,value
2023-05-16T00:00:15.145Z,597.00
2023-05-16T00:01:15.150Z,597.00
2023-05-16T00:02:15.134Z,598.00
2023-05-16T00:03:15.245Z,598.00
2023-05-16T00:04:15.251Z,597.00
2023-05-16T00:05:15.113Z,598.00
2023-05-16T00:06:15.093Z,597.00
2023-05-16T00:07:15.145Z,596.00
2023-05-16T00:08:15.130Z,596.00
2023-05-16T00:09:15.170Z,595.00
2023-05-16T00:10:15.182Z,595.00
2023-05-16T00:11:15.239Z,595.00
2023-05-16T00:12:15.258Z,596.00
2023-05-16T00:13:15.260Z,594.00
2023-05-16T00:14:15.328Z,595.00
2023-05-16T00:15:15.350Z,593.00
2023-05-16T00:16:15.417Z,592.00
2023-05-16T00:17:15.486Z,594.00
2023-05-16T00:18:15.431Z,593.00
2023-05-16T00:19:15.586Z,592.00
2023-05-16T00:20:15.486Z,594.00
2023-05-16T00:21:15.487Z,594.00
2023-05-16T00:22:15.501Z,593.00
2023-05-16T00:23:15.602Z,592.00
2023-05-16T00:24:15.555Z,591.00
2023-05-16T00:25:15.622Z,592.00
2023-05-16T00:26:15.634Z,593.00
2023-05-16T00:27:15.637Z,594.00
2023-05-16T00:28:15.695Z,596.00
2023-05-16T00:29:15.676Z,596.00
2023-05-16T00:30:15.730Z,598.00
2023-05-16T00:31:15.988Z,597.00
2023-05-16T00:32:15.865Z,595.00
2023-05-16T00:33:15.996Z,597.00
2023-05-16T00:34:15.947Z,598.00
2023-05-16T00:35:15.861Z,597.00
2023-05-16T00:36:15.903Z,598.00
2023-05-16T00:37:15.932Z,596.00
2023-05-16T00:38:16.007Z,598.00
2023-05-16T00:39:16.000Z,596.00
2023-05-16T00:40:16.025Z,597.00
2023-05-16T00:41:16.032Z,597.00
2023-05-16T00:42:16.046Z,597.00
2023-05-16T00:43:16.096Z,593.00
2023-05-16T00:44:16.094Z,592.00
2023-05-16T00:45:16.119Z,591.00
2023-05-16T00:46:16.207Z,592.00
2023-05-16T00:47:16.202Z,592.00
2023-05-16T00:48:16.277Z,593.00
2023-05-16T00:49:16.261Z,594.00
2023-05-16T00:50:16.300Z,593.00
2023-05-16T00:51:16.324Z,593.00
2023-05-16T00:52:16.353Z,594.00
2023-05-16T00:53:17.273Z,594.00
2023-05-16T00:54:16.399Z,598.00
2023-05-16T00:55:16.469Z,595.00
2023-05-16T00:56:16.499Z,594.00
2023-05-16T00:57:16.521Z,594.00
2023-05-16T00:58:16.551Z,595.00
2023-05-16T00:59:16.560Z,594.00
2023-05-16T01:00:16.622Z,595.00
2023-05-16T01:01:16.639Z,595.00
2023-05-16T01:02:16.687Z,595.00
2023-05-16T01:03:16.788Z,596.00
2023-05-16T01:04:16.741Z,595.00
2023-05-16T01:05:16.742Z,596.00
2023-05-16T01:06:16.758Z,596.00
2023-05-16T01:07:16.798Z,596.00
2023-05-16T01:08:16.811Z,597.00
2023-05-16T01:09:16.869Z,596.00
2023-05-16T01:10:16.893Z,599.00
2023-05-16T01:11:16.901Z,601.00
2023-05-16T01:12:16.880Z,601.00
2023-05-16T01:13:16.972Z,600.00
2023-05-16T01:14:16.958Z,601.00
2023-05-16T01:15:17.014Z,601.00
2023-05-16T01:16:17.039Z,599.00
2023-05-16T01:17:17.053Z,598.00
2023-05-16T01:18:17.090Z,598.00
2023-05-16T01:19:17.113Z,596.00
2023-05-16T01:20:17.134Z,597.00
2023-05-16T01:21:17.141Z,596.00
2023-05-16T01:22:17.235Z,595.00
2023-05-16T01:23:17.284Z,597.00
2023-05-16T01:24:17.323Z,597.00
2023-05-16T01:25:17.345Z,601.00
2023-05-16T01:26:17.463Z,601.00
2023-05-16T01:27:17.480Z,601.00
2023-05-16T01:28:17.564Z,600.00
2023-05-16T01:29:17.621Z,601.00
2023-05-16T01:30:17.691Z,600.00
2023-05-16T01:31:17.808Z,599.00
2023-05-16T01:32:17.824Z,599.00
2023-05-16T01:33:17.882Z,597.00
2023-05-16T01:34:17.952Z,599.00
2023-05-16T01:35:18.020Z,597.00
2023-05-16T01:36:18.059Z,597.00
2023-05-16T01:37:18.086Z,597.00
2023-05-16T01:38:18.191Z,598.00
2023-05-16T01:39:18.270Z,597.00
2023-05-16T01:40:18.279Z,596.00
2023-05-16T01:41:18.310Z,594.00
2023-05-16T01:42:18.368Z,593.00
2023-05-16T01:43:18.398Z,593.00
2023-05-16T01:44:19.210Z,591.00
2023-05-16T01:45:18.516Z,592.00
2023-05-16T01:46:18.600Z,590.00
2023-05-16T01:47:18.603Z,589.00
2023-05-16T01:48:18.641Z,588.00
2023-05-16T01:49:18.698Z,589.00
2023-05-16T01:50:18.729Z,588.00
2023-05-16T01:51:18.787Z,587.00
2023-05-16T01:52:18.758Z,589.00
2023-05-16T01:53:18.851Z,590.00
2023-05-16T01:54:18.879Z,590.00
2023-05-16T01:55:18.970Z,590.00
2023-05-16T01:56:18.980Z,592.00
2023-05-16T01:57:19.011Z,591.00
2023-05-16T01:58:19.046Z,589.00
2023-05-16T01:59:19.089Z,591.00
2023-05-16T02:00:19.155Z,591.00
2023-05-16T02:01:19.239Z,590.00
2023-05-16T02:02:19.476Z,590.00
2023-05-16T02:03:19.290Z,589.00
2023-05-16T02:04:19.394Z,590.00
2023-05-16T02:05:19.286Z,591.00
2023-05-16T02:06:19.308Z,594.00
2023-05-16T02:07:19.434Z,594.00
2023-05-16T02:08:19.418Z,593.00
2023-05-16T02:09:19.418Z,594.00
2023-05-16T02:10:19.454Z,594.00
2023-05-16T02:11:19.506Z,593.00
2023-05-16T02:12:19.515Z,591.00
2023-05-16T02:13:19.612Z,591.00
2023-05-16T02:14:19.672Z,592.00
2023-05-16T02:15:19.682Z,593.00
2023-05-16T02:16:19.796Z,595.00
2023-05-16T02:17:19.883Z,601.00
2023-05-16T02:18:19.811Z,602.00
2023-05-16T02:19:20.017Z,601.00
2023-05-16T02:20:19.921Z,601.00
2023-05-16T02:21:19.935Z,600.00
2023-05-16T02:22:19.987Z,601.00
2023-05-16T02:23:19.988Z,602.00
2023-05-16T02:24:19.988Z,601.00
2023-05-16T02:25:20.029Z,599.00
2023-05-16T02:26:20.028Z,596.00
2023-05-16T02:27:20.059Z,593.00
2023-05-16T02:28:20.131Z,591.00
2023-05-16T02:29:20.163Z,591.00
2023-05-16T02:30:20.236Z,593.00
2023-05-16T02:31:20.287Z,592.00
2023-05-16T02:32:20.381Z,591.00
2023-05-16T02:33:20.397Z,591.00
2023-05-16T02:34:20.431Z,589.00
2023-05-16T02:35:20.483Z,587.00
2023-05-16T02:36:20.535Z,587.00
2023-05-16T02:37:20.549Z,589.00
2023-05-16T02:38:20.637Z,587.00
2023-05-16T02:39:20.713Z,587.00
2023-05-16T02:40:20.773Z,587.00
2023-05-16T02:41:20.797Z,588.00
2023-05-16T02:42:20.929Z,588.00
2023-05-16T02:43:20.921Z,589.00
2023-05-16T02:44:20.948Z,588.00
2023-05-16T02:45:20.973Z,590.00
2023-05-16T02:46:21.044Z,589.00
2023-05-16T02:47:21.194Z,589.00
2023-05-16T02:48:21.134Z,591.00
2023-05-16T02:49:21.143Z,591.00
2023-05-16T02:50:21.200Z,590.00
2023-05-16T02:51:21.273Z,591.00
2023-05-16T02:52:21.301Z,591.00
2023-05-16T02:53:21.362Z,589.00
2023-05-16T02:54:21.425Z,589.00
2023-05-16T02:55:22.530Z,586.00
2023-05-16T02:56:21.532Z,587.00
2023-05-16T02:57:21.586Z,588.00
2023-05-16T02:58:21.659Z,590.00
2023-05-16T02:59:21.713Z,588.00
2023-05-16T03:00:21.733Z,588.00
2023-05-16T03:01:21.752Z,586.00
2023-05-16T03:02:21.897Z,586.00
2023-05-16T03:03:21.950Z,585.00
2023-05-16T03:04:21.903Z,587.00
2023-05-16T03:05:21.867Z,590.00
2023-05-16T03:06:21.903Z,591.00
2023-05-16T03:07:21.915Z,590.00
2023-05-16T03:08:21.970Z,588.00
2023-05-16T03:09:22.004Z,586.00
2023-05-16T03:10:22.045Z,584.00
2023-05-16T03:11:22.088Z,586.00
2023-05-16T03:12:22.107Z,585.00
2023-05-16T03:13:22.146Z,583.00
2023-05-16T03:14:22.208Z,585.00
2023-05-16T03:15:22.244Z,586.00
2023-05-16T03:16:22.286Z,586.00
2023-05-16T03:17:22.330Z,587.00
2023-05-16T03:18:22.362Z,588.00
2023-05-16T03:19:22.451Z,587.00
2023-05-16T03:20:22.449Z,587.00
2023-05-16T03:21:22.478Z,588.00
2023-05-16T03:22:22.518Z,590.00
2023-05-16T03:23:22.554Z,588.00
2023-05-16T03:24:22.691Z,589.00
2023-05-16T03:25:22.639Z,590.00
2023-05-16T03:26:22.687Z,592.00
2023-05-16T03:27:22.707Z,591.00
2023-05-16T03:28:22.765Z,589.00
2023-05-16T03:29:22.802Z,587.00
2023-05-16T03:30:22.857Z,588.00
2023-05-16T03:31:22.912Z,587.00
2023-05-16T03:32:22.904Z,588.00
2023-05-16T03:33:22.946Z,585.00
2023-05-16T03:34:22.995Z,587.00
2023-05-16T03:35:23.029Z,584.00
2023-05-16T03:36:23.067Z,584.00
2023-05-16T03:37:23.097Z,587.00
2023-05-16T03:38:23.164Z,589.00
2023-05-16T03:39:23.193Z,594.00
2023-05-16T03:40:23.259Z,588.00
2023-05-16T03:41:23.312Z,587.00
2023-05-16T03:42:23.322Z,586.00
2023-05-16T03:43:23.394Z,587.00
2023-05-16T03:44:23.411Z,585.00
2023-05-16T03:45:23.489Z,582.00
2023-05-16T03:46:23.801Z,581.00
2023-05-16T03:47:23.561Z,582.00
2023-05-16T03:48:23.571Z,584.00
2023-05-16T03:49:23.711Z,580.00
2023-05-16T03:50:23.675Z,580.00
2023-05-16T03:51:25.487Z,580.00
2023-05-16T03:52:23.734Z,578.00
2023-05-16T03:53:23.781Z,577.00
2023-05-16T03:54:23.812Z,578.00
2023-05-16T03:55:23.879Z,576.00
2023-05-16T03:56:23.910Z,575.00
2023-05-16T03:57:23.941Z,575.00
2023-05-16T03:58:24.005Z,575.00
2023-05-16T03:59:24.045Z,578.00
2023-05-16T04:00:24.093Z,577.00
2023-05-16T04:01:24.144Z,575.00
2023-05-16T04:02:24.230Z,578.00
2023-05-16T04:03:24.287Z,579.00
2023-05-16T04:04:24.275Z,582.00
2023-05-16T04:05:24.357Z,581.00
2023-05-16T04:06:24.399Z,582.00
2023-05-16T04:07:24.411Z,583.00
2023-05-16T04:08:24.467Z,585.00
2023-05-16T04:09:24.521Z,583.00
2023-05-16T04:10:24.628Z,581.00
2023-05-16T04:11:24.629Z,578.00
2023-05-16T04:12:24.685Z,580.00
2023-05-16T04:13:24.746Z,583.00
2023-05-16T04:14:24.736Z,584.00
2023-05-16T04:15:24.949Z,585.00
2023-05-16T04:16:24.935Z,584.00
2023-05-16T04:17:24.917Z,585.00
2023-05-16T04:18:24.968Z,585.00
2023-05-16T04:19:25.031Z,583.00
2023-05-16T04:20:25.065Z,581.00
2023-05-16T04:21:25.084Z,582.00
2023-05-16T04:22:25.114Z,581.00
2023-05-16T04:23:25.191Z,580.00
2023-05-16T04:24:25.241Z,581.00
2023-05-16T04:25:25.431Z,580.00
2023-05-16T04:26:25.340Z,582.00
2023-05-16T04:27:25.395Z,581.00
2023-05-16T04:28:25.433Z,583.00
2023-05-16T04:29:25.473Z,585.00
2023-05-16T04:30:25.504Z,581.00
2023-05-16T04:31:25.596Z,581.00
2023-05-16T04:32:25.646Z,582.00
2023-05-16T04:33:25.683Z,584.00
2023-05-16T04:34:25.715Z,584.00
2023-05-16T04:35:26.088Z,583.00
2023-05-16T04:36:25.819Z,583.00
2023-05-16T04:37:25.855Z,583.00
2023-05-16T04:38:25.898Z,581.00
2023-05-16T04:39:25.960Z,583.00
2023-05-16T04:40:26.035Z,584.00
2023-05-16T04:41:26.038Z,586.00
2023-05-16T04:42:26.082Z,587.00
2023-05-16T04:43:26.096Z,588.00
2023-05-16T04:44:26.139Z,588.00
2023-05-16T04:45:26.523Z,588.00
2023-05-16T04:46:26.344Z,587.00
2023-05-16T04:47:26.328Z,584.00
2023-05-16T04:48:26.336Z,583.00
2023-05-16T04:49:26.386Z,581.00
2023-05-16T04:50:26.489Z,583.00
2023-05-16T04:51:26.501Z,580.00
2023-05-16T04:52:26.567Z,581.00
2023-05-16T04:53:26.600Z,582.00
2023-05-16T04:54:26.710Z,580.00
2023-05-16T04:55:27.003Z,583.00
2023-05-16T04:56:26.744Z,584.00
2023-05-16T04:57:26.787Z,586.00
2023-05-16T04:58:26.814Z,588.00
2023-05-16T04:59:26.933Z,586.00
2023-05-16T05:00:27.228Z,586.00
2023-05-16T05:01:27.075Z,586.00
2023-05-16T05:02:27.065Z,588.00
2023-05-16T05:03:27.838Z,590.00
2023-05-16T05:04:27.202Z,590.00
2023-05-16T05:05:27.672Z,588.00
2023-05-16T05:06:27.227Z,587.00
2023-05-16T05:07:27.324Z,586.00
2023-05-16T05:08:27.285Z,586.00
2023-05-16T05:09:27.359Z,585.00
2023-05-16T05:10:27.398Z,586.00
2023-05-16T05:11:27.465Z,587.00
2023-05-16T05:12:27.488Z,586.00
2023-05-16T05:13:27.510Z,589.00
2023-05-16T05:14:27.542Z,591.00
2023-05-16T05:15:28.081Z,590.00
2023-05-16T05:16:27.739Z,592.00
2023-05-16T05:17:27.877Z,588.00
2023-05-16T05:18:27.822Z,589.00
2023-05-16T05:19:27.855Z,587.00
2023-05-16T05:20:27.874Z,589.00
2023-05-16T05:21:27.878Z,589.00
2023-05-16T05:22:27.934Z,588.00
2023-05-16T05:23:27.990Z,589.00
2023-05-16T05:24:28.020Z,589.00
2023-05-16T05:25:28.313Z,591.00
2023-05-16T05:26:28.104Z,591.00
2023-05-16T05:27:28.124Z,591.00
2023-05-16T05:28:28.310Z,592.00
2023-05-16T05:29:28.255Z,592.00
2023-05-16T05:30:28.306Z,591.00
2023-05-16T05:31:28.384Z,591.00
2023-05-16T05:32:28.407Z,590.00
2023-05-16T05:33:28.452Z,592.00
2023-05-16T05:34:28.486Z,594.00
2023-05-16T05:35:28.800Z,593.00
2023-05-16T05:36:28.610Z,593.00
2023-05-16T05:37:28.624Z,596.00
2023-05-16T05:38:28.698Z,597.00
2023-05-16T05:39:28.704Z,605.00
2023-05-16T05:40:28.777Z,634.00
2023-05-16T05:41:28.825Z,643.00
2023-05-16T05:42:28.900Z,658.00
2023-05-16T05:43:28.932Z,677.00
2023-05-16T05:44:28.957Z,711.00
2023-05-16T05:45:29.256Z,725.00
2023-05-16T05:46:29.119Z,815.00
2023-05-16T05:47:29.120Z,837.00
2023-05-16T05:48:29.107Z,853.00
2023-05-16T05:49:29.149Z,876.00
2023-05-16T05:50:29.272Z,906.00
2023-05-16T05:51:29.277Z,923.00
2023-05-16T05:52:29.255Z,931.00
2023-05-16T05:53:29.326Z,937.00
2023-05-16T05:54:29.380Z,955.00
2023-05-16T05:55:29.657Z,1035.00
2023-05-16T05:56:29.425Z,1048.00
2023-05-16T05:57:29.425Z,1060.00
2023-05-16T05:58:30.371Z,1205.00
2023-05-16T05:59:29.547Z,1308.00
2023-05-16T06:00:29.598Z,1280.00
2023-05-16T06:01:29.565Z,1279.00
2023-05-16T06:02:29.721Z,1290.00
2023-05-16T06:03:29.603Z,1306.00
2023-05-16T06:04:29.611Z,1334.00
2023-05-16T06:05:29.905Z,1352.00
2023-05-16T06:06:29.631Z,1388.00
2023-05-16T06:07:29.660Z,1403.00
2023-05-16T06:08:29.709Z,1425.00
2023-05-16T06:09:29.709Z,1462.00
2023-05-16T06:10:29.773Z,1475.00
2023-05-16T06:11:29.752Z,1492.00
2023-05-16T06:12:29.775Z,1508.00
2023-05-16T06:13:29.782Z,1520.00
2023-05-16T06:14:29.791Z,1573.00
2023-05-16T06:15:29.957Z,1592.00
2023-05-16T06:16:29.876Z,1601.00
2023-05-16T06:17:29.853Z,1617.00
2023-05-16T06:18:29.965Z,1632.00
2023-05-16T06:19:29.893Z,1642.00
2023-05-16T06:20:29.948Z,1656.00
2023-05-16T06:21:29.980Z,1672.00
2023-05-16T06:22:30.031Z,1700.00
2023-05-16T06:23:30.058Z,1706.00
2023-05-16T06:24:30.078Z,1718.00
2023-05-16T06:25:30.260Z,1784.00
2023-05-16T06:26:30.164Z,1804.00
2023-05-16T06:27:30.200Z,1813.00
2023-05-16T06:28:30.201Z,1820.00
2023-05-16T06:29:30.227Z,1833.00
2023-05-16T06:30:30.301Z,1849.00
2023-05-16T06:31:30.321Z,1859.00
2023-05-16T06:32:30.370Z,1874.00
2023-05-16T06:33:30.353Z,1902.00
2023-05-16T06:34:30.398Z,1914.00
2023-05-16T06:35:30.426Z,1929.00
2023-05-16T06:36:30.449Z,1938.00
2023-05-16T06:37:30.479Z,1952.00
2023-05-16T06:38:30.494Z,1969.00
2023-05-16T06:39:30.492Z,1986.00
2023-05-16T06:40:30.529Z,1998.00
2023-05-16T06:41:30.583Z,2014.00
2023-05-16T06:42:30.598Z,2031.00
2023-05-16T06:43:30.574Z,2042.00
2023-05-16T06:44:30.616Z,2061.00
2023-05-16T06:45:30.754Z,2071.00
2023-05-16T06:46:30.713Z,2103.00
2023-05-16T06:47:30.748Z,2131.00
2023-05-16T06:48:30.765Z,2139.00
2023-05-16T06:49:30.719Z,2153.00
2023-05-16T06:50:30.745Z,2162.00
2023-05-16T06:51:30.758Z,2200.00
2023-05-16T06:52:30.731Z,2240.00
2023-05-16T06:53:30.746Z,2257.00
2023-05-16T06:54:30.808Z,2264.00
2023-05-16T06:55:30.837Z,2275.00
2023-05-16T06:56:30.798Z,2285.00
2023-05-16T06:57:30.804Z,2290.00
2023-05-16T06:58:30.800Z,2296.00
2023-05-16T06:59:30.819Z,2305.00
2023-05-16T07:00:30.911Z,2312.00
2023-05-16T07:01:31.007Z,2322.00
2023-05-16T07:02:31.124Z,2330.00
2023-05-16T07:03:31.204Z,2338.00
2023-05-16T07:04:31.164Z,2345.00
2023-05-16T07:05:31.228Z,2356.00
2023-05-16T07:06:31.274Z,2363.00
2023-05-16T07:07:31.327Z,2375.00
2023-05-16T07:08:31.420Z,2380.00
2023-05-16T07:09:31.472Z,2392.00
2023-05-16T07:10:31.510Z,2398.00
2023-05-16T07:11:31.576Z,2204.00
2023-05-16T07:12:31.639Z,2238.00
2023-05-16T07:13:32.496Z,1953.00
2023-05-16T07:14:31.706Z,1558.00
2023-05-16T07:15:31.675Z,1436.00
2023-05-16T07:16:31.775Z,1675.00
2023-05-16T07:17:31.765Z,1666.00
2023-05-16T07:18:31.742Z,1864.00
2023-05-16T07:19:31.780Z,1684.00
2023-05-16T07:20:31.790Z,1531.00
2023-05-16T07:21:31.838Z,1103.00
2023-05-16T07:22:31.851Z,950.00
2023-05-16T07:23:31.907Z,1091.00
2023-05-16T07:24:31.960Z,1095.00
2023-05-16T07:25:32.026Z,998.00
2023-05-16T07:26:32.090Z,1107.00
2023-05-16T07:27:32.142Z,1013.00
2023-05-16T07:28:32.208Z,1045.00
2023-05-16T07:29:32.274Z,1187.00
2023-05-16T07:30:32.354Z,1067.00
2023-05-16T07:31:32.460Z,1063.00
2023-05-16T07:32:32.440Z,1085.00
2023-05-16T07:33:32.499Z,971.00
2023-05-16T07:34:32.529Z,989.00
2023-05-16T07:35:32.632Z,900.00
2023-05-16T07:36:32.663Z,1054.00
2023-05-16T07:37:32.735Z,1056.00
2023-05-16T07:38:32.776Z,1122.00
2023-05-16T07:39:32.810Z,1152.00
2023-05-16T07:40:32.903Z,1163.00
2023-05-16T07:41:32.943Z,1172.00
2023-05-16T07:42:32.946Z,1180.00
2023-05-16T07:43:33.016Z,1209.00
2023-05-16T07:44:33.050Z,1248.00
2023-05-16T07:45:33.076Z,1258.00
2023-05-16T07:46:33.144Z,1267.00
2023-05-16T07:47:33.332Z,1333.00
2023-05-16T07:48:33.144Z,1329.00
2023-05-16T07:49:33.136Z,1333.00
2023-05-16T07:50:33.170Z,1352.00
2023-05-16T07:51:33.228Z,1413.00
2023-05-16T07:52:33.169Z,1408.00
2023-05-16T07:53:33.166Z,1424.00
2023-05-16T07:54:33.172Z,1443.00
2023-05-16T07:55:33.213Z,1464.00
2023-05-16T07:56:33.184Z,1484.00
2023-05-16T07:57:33.186Z,1503.00
2023-05-16T07:58:33.171Z,1513.00
2023-05-16T07:59:33.267Z,1523.00
2023-05-16T08:00:33.211Z,1538.00
2023-05-16T08:01:33.194Z,1547.00
2023-05-16T08:02:33.264Z,1556.00
2023-05-16T08:03:33.307Z,1579.00
2023-05-16T08:04:33.200Z,1596.00
2023-05-16T08:05:33.233Z,1605.00
2023-05-16T08:06:33.216Z,1612.00
2023-05-16T08:07:33.470Z,1616.00
2023-05-16T08:08:33.230Z,1621.00
2023-05-16T08:09:33.244Z,1628.00
2023-05-16T08:10:33.244Z,1637.00
2023-05-16T08:11:33.234Z,1638.00
2023-05-16T08:12:33.224Z,1642.00
2023-05-16T08:13:33.233Z,1178.00
2023-05-16T08:14:33.217Z,1001.00
2023-05-16T08:15:33.235Z,827.00
2023-05-16T08:16:33.335Z,830.00
2023-05-16T08:17:33.452Z,777.00
2023-05-16T08:18:33.422Z,721.00
2023-05-16T08:19:33.427Z,685.00
2023-05-16T08:20:33.453Z,661.00
2023-05-16T08:21:33.473Z,634.00
2023-05-16T08:22:33.470Z,667.00
2023-05-16T08:23:33.553Z,652.00
2023-05-16T08:24:33.594Z,616.00
2023-05-16T08:25:33.602Z,595.00
2023-05-16T08:26:33.667Z,591.00
2023-05-16T08:27:33.752Z,591.00
2023-05-16T08:28:33.819Z,610.00
2023-05-16T08:29:33.817Z,669.00
2023-05-16T08:30:33.880Z,685.00
2023-05-16T08:31:34.023Z,695.00
2023-05-16T08:32:34.089Z,711.00
2023-05-16T08:33:34.071Z,780.00
2023-05-16T08:34:34.073Z,795.00
2023-05-16T08:35:34.072Z,805.00
2023-05-16T08:36:34.115Z,816.00
2023-05-16T08:37:34.111Z,827.00
2023-05-16T08:38:34.169Z,943.00
2023-05-16T08:39:34.271Z,964.00
2023-05-16T08:40:34.375Z,1045.00
2023-05-16T08:41:34.277Z,1063.00
2023-05-16T08:42:34.301Z,1080.00
2023-05-16T08:43:34.381Z,1133.00
2023-05-16T08:44:34.416Z,1220.00
2023-05-16T08:45:34.472Z,1249.00
2023-05-16T08:46:34.566Z,1302.00
2023-05-16T08:47:34.657Z,1332.00
2023-05-16T08:48:34.596Z,1553.00
2023-05-16T08:49:34.611Z,1585.00
2023-05-16T08:50:34.647Z,1590.00
2023-05-16T08:51:34.702Z,1625.00
2023-05-16T08:52:34.694Z,1653.00
2023-05-16T08:53:34.707Z,1511.00
2023-05-16T08:54:34.733Z,1181.00
2023-05-16T08:55:34.893Z,1137.00
2023-05-16T08:56:34.801Z,1159.00
2023-05-16T08:57:34.839Z,1268.00
2023-05-16T08:58:34.886Z,1265.00
2023-05-16T08:59:34.966Z,1268.00
2023-05-16T09:00:35.066Z,1263.00
2023-05-16T09:01:35.311Z,1238.00
2023-05-16T09:02:35.143Z,1093.00
2023-05-16T09:03:35.161Z,1102.00
2023-05-16T09:04:35.250Z,992.00
2023-05-16T09:05:35.259Z,967.00
2023-05-16T09:06:36.981Z,945.00
2023-05-16T09:07:35.373Z,851.00
2023-05-16T09:08:35.431Z,868.00
2023-05-16T09:09:35.495Z,864.00
2023-05-16T09:10:35.575Z,853.00
2023-05-16T09:11:37.115Z,854.00
2023-05-16T09:12:35.686Z,854.00
2023-05-16T09:13:35.721Z,851.00
2023-05-16T09:14:35.767Z,836.00
2023-05-16T09:15:35.831Z,815.00
2023-05-16T09:16:35.894Z,786.00
2023-05-16T09:17:39.826Z,764.00
2023-05-16T09:18:35.937Z,760.00
2023-05-16T09:19:36.035Z,755.00
2023-05-16T09:20:35.900Z,758.00
2023-05-16T09:21:35.904Z,749.00
2023-05-16T09:22:35.939Z,747.00
2023-05-16T09:23:37.214Z,747.00
2023-05-16T09:24:36.032Z,743.00
2023-05-16T09:25:36.284Z,724.00
2023-05-16T09:26:36.112Z,702.00
2023-05-16T09:27:36.180Z,693.00
2023-05-16T09:28:36.223Z,691.00
2023-05-16T09:29:37.123Z,707.00
2023-05-16T09:30:36.272Z,709.00
2023-05-16T09:31:36.401Z,704.00
2023-05-16T09:32:36.382Z,695.00
2023-05-16T09:33:36.388Z,691.00
2023-05-16T09:34:36.419Z,688.00
2023-05-16T09:35:44.679Z,696.00
2023-05-16T09:36:37.445Z,762.00
2023-05-16T09:37:36.456Z,764.00
2023-05-16T09:38:36.431Z,772.00
2023-05-16T09:39:36.433Z,779.00
2023-05-16T09:40:36.423Z,921.00
2023-05-16T09:41:36.420Z,936.00
2023-05-16T09:42:36.390Z,941.00
2023-05-16T09:43:37.872Z,947.00
2023-05-16T09:44:36.400Z,953.00
2023-05-16T09:45:36.424Z,959.00
2023-05-16T09:46:36.460Z,990.00
2023-05-16T09:47:36.524Z,1037.00
2023-05-16T09:48:36.525Z,1052.00
2023-05-16T09:49:36.586Z,1063.00
2023-05-16T09:50:36.618Z,1063.00
2023-05-16T09:51:36.731Z,1066.00
2023-05-16T09:52:36.754Z,1065.00
2023-05-16T09:53:36.794Z,1072.00
2023-05-16T09:54:36.900Z,1079.00
2023-05-16T09:55:36.948Z,1091.00
2023-05-16T09:56:36.985Z,1120.00
2023-05-16T09:57:37.048Z,1132.00
2023-05-16T09:58:37.112Z,1149.00
2023-05-16T09:59:37.160Z,1161.00
2023-05-16T10:00:37.209Z,1171.00
2023-05-16T10:01:37.270Z,1181.00
2023-05-16T10:02:37.325Z,1202.00
2023-05-16T10:03:37.378Z,1215.00
2023-05-16T10:04:37.343Z,1222.00
2023-05-16T10:05:37.397Z,1232.00
2023-05-16T10:06:37.431Z,1243.00
2023-05-16T10:07:37.476Z,1252.00
2023-05-16T10:08:37.513Z,1270.00
2023-05-16T10:09:37.541Z,1283.00
2023-05-16T10:10:37.552Z,1294.00
2023-05-16T10:11:37.606Z,1320.00
2023-05-16T10:12:37.620Z,1329.00
2023-05-16T10:13:37.777Z,1344.00
2023-05-16T10:14:37.710Z,1355.00
2023-05-16T10:15:37.764Z,1366.00
2023-05-16T10:16:37.815Z,1372.00
2023-05-16T10:17:37.828Z,1382.00
2023-05-16T10:18:37.879Z,1395.00
2023-05-16T10:19:37.823Z,1403.00
2023-05-16T10:20:37.869Z,1412.00
2023-05-16T10:21:37.890Z,1423.00
2023-05-16T10:22:37.896Z,1429.00
2023-05-16T10:23:37.885Z,1439.00
2023-05-16T10:24:37.987Z,1071.00
2023-05-16T10:25:38.030Z,991.00
2023-05-16T10:26:38.978Z,848.00
2023-05-16T10:27:38.074Z,800.00
2023-05-16T10:28:38.156Z,748.00
2023-05-16T10:29:50.328Z,720.00
2023-05-16T10:30:39.161Z,707.00
2023-05-16T10:31:38.416Z,688.00
2023-05-16T10:32:39.404Z,674.00
2023-05-16T10:33:38.206Z,660.00
2023-05-16T10:34:38.203Z,650.00
2023-05-16T10:35:38.216Z,644.00
2023-05-16T10:36:38.216Z,645.00
2023-05-16T10:37:38.229Z,647.00
2023-05-16T10:38:38.233Z,3378.00
2023-05-16T10:39:38.250Z,1053.00
2023-05-16T10:40:38.269Z,935.00
2023-05-16T10:41:38.420Z,1048.00
2023-05-16T10:42:38.396Z,1051.00
2023-05-16T10:43:38.419Z,1083.00
2023-05-16T10:44:38.501Z,1121.00
2023-05-16T10:45:38.571Z,1224.00
2023-05-16T10:46:38.781Z,1161.00
2023-05-16T10:47:38.770Z,1083.00
2023-05-16T10:48:38.829Z,1221.00
2023-05-16T10:49:38.772Z,1242.00
2023-05-16T10:50:38.830Z,1258.00
2023-05-16T10:51:38.983Z,1277.00
2023-05-16T10:52:38.886Z,1319.00
2023-05-16T10:53:38.928Z,1334.00
2023-05-16T10:54:38.968Z,1357.00
2023-05-16T10:55:38.983Z,1382.00
2023-05-16T10:56:39.035Z,1418.00
2023-05-16T10:57:39.056Z,1449.00
2023-05-16T10:58:39.086Z,1515.00
2023-05-16T10:59:39.069Z,1541.00
2023-05-16T11:00:39.091Z,1553.00
2023-05-16T11:01:39.155Z,1573.00
2023-05-16T11:02:39.201Z,1589.00
2023-05-16T11:03:39.384Z,1600.00
2023-05-16T11:04:39.129Z,1650.00
2023-05-16T11:05:39.114Z,1672.00
2023-05-16T11:06:39.093Z,1682.00
2023-05-16T11:07:39.123Z,1693.00
2023-05-16T11:08:39.069Z,1706.00
2023-05-16T11:09:39.093Z,1713.00
2023-05-16T11:10:39.099Z,1717.00
2023-05-16T11:11:39.126Z,1727.00
2023-05-16T11:12:39.137Z,1735.00
2023-05-16T11:13:39.168Z,1747.00
2023-05-16T11:14:39.222Z,1752.00
2023-05-16T11:15:39.200Z,1760.00
2023-05-16T11:16:39.293Z,1778.00
2023-05-16T11:17:40.876Z,1806.00
2023-05-16T11:18:39.530Z,1841.00
2023-05-16T11:19:39.586Z,1860.00
2023-05-16T11:20:39.630Z,1874.00
2023-05-16T11:21:39.679Z,1890.00
2023-05-16T11:22:39.739Z,1902.00
2023-05-16T11:23:39.796Z,1923.00
2023-05-16T11:24:39.864Z,1956.00
2023-05-16T11:25:40.444Z,1982.00
2023-05-16T11:26:40.025Z,1996.00
2023-05-16T11:27:40.079Z,2025.00
2023-05-16T11:28:40.127Z,2048.00
2023-05-16T11:29:40.165Z,2067.00
2023-05-16T11:30:40.319Z,2079.00
2023-05-16T11:31:40.389Z,2102.00
2023-05-16T11:32:40.868Z,2111.00
2023-05-16T11:33:40.398Z,2123.00
2023-05-16T11:34:40.460Z,2134.00
2023-05-16T11:35:40.521Z,2137.00
2023-05-16T11:36:40.572Z,2135.00
2023-05-16T11:37:40.629Z,2132.00
2023-05-16T11:38:40.691Z,2129.00
2023-05-16T11:39:40.785Z,2124.00
2023-05-16T11:40:40.815Z,2123.00
2023-05-16T11:41:40.871Z,2123.00
2023-05-16T11:42:40.937Z,2125.00
2023-05-16T11:43:41.004Z,2122.00
2023-05-16T11:44:41.085Z,2122.00
2023-05-16T11:45:41.135Z,2122.00
2023-05-16T11:46:41.245Z,2121.00
2023-05-16T11:47:41.269Z,2120.00
2023-05-16T11:48:41.376Z,2119.00
2023-05-16T11:49:41.369Z,2123.00
2023-05-16T11:50:41.433Z,2127.00
2023-05-16T11:51:41.480Z,2123.00
2023-05-16T11:52:41.554Z,2123.00
2023-05-16T11:53:41.593Z,2129.00
2023-05-16T11:54:41.678Z,2132.00
2023-05-16T11:55:42.703Z,2132.00
2023-05-16T11:56:41.756Z,2135.00
2023-05-16T11:57:41.791Z,2137.00
2023-05-16T11:58:41.826Z,2137.00
2023-05-16T11:59:41.803Z,2138.00
2023-05-16T12:00:41.850Z,2136.00
2023-05-16T12:01:41.863Z,2138.00
2023-05-16T12:02:42.006Z,2136.00
2023-05-16T12:03:42.040Z,2137.00
2023-05-16T12:04:42.035Z,2137.00
2023-05-16T12:05:42.116Z,2001.00
2023-05-16T12:06:42.028Z,1295.00
2023-05-16T12:07:42.005Z,1258.00
2023-05-16T12:08:42.043Z,1115.00
2023-05-16T12:09:42.050Z,835.00
2023-05-16T12:10:42.143Z,902.00
2023-05-16T12:11:42.206Z,917.00
2023-05-16T12:12:42.281Z,946.00
2023-05-16T12:13:42.294Z,948.00
2023-05-16T12:14:42.359Z,789.00
2023-05-16T12:15:42.365Z,742.00
2023-05-16T12:16:42.521Z,845.00
2023-05-16T12:17:42.498Z,779.00
2023-05-16T12:18:43.694Z,1038.00
2023-05-16T12:19:42.460Z,828.00